Time;durP1;ratioP1;P1;durP2;ratioP2;P2;SDS_P1;SDS_P2;PMS_P1;PMS_P2;Temp;Humidity;BMP_temperature;BMP_pressure;BME280_temperature;BME280_humidity;BME280_pressure;Samples;Min_cycle;Max_cycle;Signal;HPM_P1;HPM_P2
2022/09/20 00:07:59;;;;;;;0.20;0.00;;;21.10;99.90;;;;;;25915460;23;20192;-69
2022/09/20 00:18:04;;;;;;;0.20;0.00;;;21.00;99.90;;;;;;25915313;23;20191;-69
2022/09/20 00:28:11;;;;;;;0.20;0.10;;;20.90;99.90;;;;;;25914571;23;20218;-69
2022/09/20 00:38:17;;;;;;;0.20;0.00;;;21.00;99.90;;;;;;25915342;23;20233;-69
2022/09/20 00:48:28;;;;;;;0.20;0.10;;;21.00;99.90;;;;;;25914522;23;20172;-69
2022/09/20 00:58:38;;;;;;;0.20;0.00;;;20.90;99.90;;;;;;26032071;22;20210;-70
2022/09/20 01:08:46;;;;;;;0.20;0.10;;;20.90;99.90;;;;;;26041570;22;20242;-69
2022/09/20 01:18:51;;;;;;;0.20;0.00;;;20.90;99.90;;;;;;26042409;22;20168;-69
2022/09/20 01:29:08;;;;;;;0.20;0.00;;;20.70;99.90;;;;;;26042652;22;20259;-69
2022/09/20 01:39:18;;;;;;;0.20;0.10;;;20.70;99.90;;;;;;26050056;22;20160;-69
2022/09/20 01:49:33;;;;;;;0.20;0.10;;;20.70;99.90;;;;;;26049390;22;20259;-70
2022/09/20 01:59:55;;;;;;;0.20;0.10;;;20.60;99.90;;;;;;26049373;22;20660;-70
2022/09/20 02:10:15;;;;;;;0.20;0.10;;;20.50;99.90;;;;;;26024548;22;20199;-70
2022/09/20 02:20:36;;;;;;;0.20;0.10;;;20.00;99.90;;;;;;26049398;22;20210;-70
2022/09/20 02:30:54;;;;;;;0.20;0.00;;;19.80;99.90;;;;;;26049056;22;20187;-70
2022/09/20 02:41:20;;;;;;;0.20;0.00;;;19.60;99.90;;;;;;26046961;22;20180;-70
2022/09/20 02:51:31;;;;;;;0.20;0.00;;;19.50;99.90;;;;;;26045535;22;20239;-70
2022/09/20 03:01:46;;;;;;;0.20;0.10;;;19.60;99.90;;;;;;26047367;22;20260;-69
2022/09/20 03:12:02;;;;;;;0.20;0.00;;;19.30;99.90;;;;;;26047276;22;20191;-69
2022/09/20 03:22:17;;;;;;;0.20;0.10;;;19.10;99.90;;;;;;26021593;22;20156;-69
2022/09/20 03:32:37;;;;;;;0.20;0.03;;;19.20;99.90;;;;;;26018261;22;20195;-70
2022/09/20 03:42:47;;;;;;;0.20;0.10;;;19.00;99.90;;;;;;26044498;22;20243;-69
2022/09/20 03:53:15;;;;;;;0.20;0.00;;;18.90;99.90;;;;;;26041731;22;20208;-69
2022/09/20 04:03:28;;;;;;;0.20;0.10;;;18.80;99.90;;;;;;26042926;22;20186;-69
2022/09/20 04:13:37;;;;;;;0.20;0.00;;;18.60;99.90;;;;;;26016948;22;20259;-69
2022/09/20 04:23:48;;;;;;;0.20;0.00;;;18.50;99.90;;;;;;26041528;22;20214;-68
2022/09/20 04:33:57;;;;;;;0.20;0.10;;;18.50;99.90;;;;;;26013876;22;20184;-70
2022/09/20 04:44:21;;;;;;;0.20;0.00;;;18.50;99.90;;;;;;26038019;22;20219;-70
2022/09/20 04:55:01;;;;;;;0.20;0.10;;;18.40;99.90;;;;;;26014063;22;20731;-70
2022/09/20 05:05:51;;;;;;;0.20;0.00;;;18.40;99.90;;;;;;26014690;22;20227;-70
2022/09/20 05:16:01;;;;;;;0.20;0.10;;;19.30;99.90;;;;;;26023037;22;20282;-69
2022/09/20 05:26:14;;;;;;;0.20;0.10;;;20.50;99.90;;;;;;26020888;22;20233;-69
2022/09/20 05:36:26;;;;;;;0.20;0.00;;;20.80;99.90;;;;;;26022380;22;20156;-68
2022/09/20 05:46:46;;;;;;;0.20;0.00;;;21.00;99.90;;;;;;26015992;22;20176;-68
2022/09/20 05:57:00;;;;;;;0.20;0.00;;;21.20;99.90;;;;;;26035552;22;20196;-70
2022/09/20 06:07:15;;;;;;;0.20;0.00;;;21.20;99.90;;;;;;26009535;22;20219;-69
2022/09/20 06:17:27;;;;;;;0.20;0.00;;;21.30;99.90;;;;;;26041776;22;20353;-68
2022/09/20 06:27:37;;;;;;;0.20;0.00;;;21.50;99.90;;;;;;26017535;22;20271;-69
2022/09/20 06:48:14;;;;;;;0.20;0.00;;;21.90;99.90;;;;;;26040492;22;20227;-69
2022/09/20 06:58:20;;;;;;;0.20;0.00;;;21.90;99.90;;;;;;25910855;23;20223;-69
2022/09/20 07:08:24;;;;;;;0.20;0.00;;;22.30;99.90;;;;;;25910674;23;20192;-70
2022/09/20 07:18:30;;;;;;;0.20;0.10;;;22.30;99.90;;;;;;25914779;22;20207;-68
2022/09/20 07:28:34;;;;;;;0.20;0.00;;;22.40;99.90;;;;;;25911146;23;20184;-68
2022/09/20 07:38:40;;;;;;;0.20;0.00;;;22.40;99.90;;;;;;25911480;23;20257;-69
2022/09/20 07:48:44;;;;;;;0.20;0.00;;;22.70;99.90;;;;;;25912170;23;20181;-68
2022/09/20 07:58:49;;;;;;;0.20;0.00;;;22.60;99.90;;;;;;25910653;23;20227;-67
2022/09/20 08:08:55;;;;;;;0.20;0.00;;;23.30;99.90;;;;;;25909093;23;20189;-69
2022/09/20 08:19:02;;;;;;;0.20;0.10;;;22.80;99.90;;;;;;25910982;23;20181;-71
2022/09/20 08:29:06;;;;;;;0.20;0.00;;;22.80;99.90;;;;;;25909706;23;20248;-68
2022/09/20 08:39:11;;;;;;;0.20;0.10;;;23.10;99.90;;;;;;25902115;23;20190;-67
2022/09/20 08:49:35;;;;;;;0.20;0.00;;;23.40;99.90;;;;;;25912175;22;20202;-70
2022/09/20 08:59:40;;;;;;;0.20;0.00;;;23.40;99.90;;;;;;26036612;22;20149;-72
2022/09/20 09:09:46;;;;;;;0.20;0.00;;;23.60;99.90;;;;;;26036259;22;20207;-70
2022/09/20 09:19:52;;;;;;;0.20;0.00;;;23.50;99.90;;;;;;26034300;22;20210;-68
2022/09/20 09:29:56;;;;;;;0.20;0.00;;;23.50;99.90;;;;;;26038289;22;20241;-68
2022/09/20 09:40:15;;;;;;;0.20;0.00;;;24.10;99.90;;;;;;26009101;22;20176;-69
2022/09/20 09:50:24;;;;;;;0.20;0.00;;;24.30;99.90;;;;;;26010752;22;20196;-69
2022/09/20 10:00:34;;;;;;;0.20;0.10;;;24.30;99.90;;;;;;26044986;22;20152;-67
2022/09/20 10:10:51;;;;;;;0.20;0.00;;;24.30;99.90;;;;;;26019048;22;20199;-68
2022/09/20 10:21:13;;;;;;;0.20;0.00;;;24.80;99.90;;;;;;26042639;22;20156;-67
2022/09/20 10:31:34;;;;;;;0.20;0.00;;;24.90;99.90;;;;;;26042398;22;20186;-69
2022/09/20 10:52:30;;;;;;;0.20;0.00;;;25.80;99.90;;;;;;26013786;22;20263;-68
2022/09/20 11:02:46;;;;;;;0.20;0.10;;;26.20;99.90;;;;;;26040264;22;20249;-68
2022/09/20 11:12:53;;;;;;;0.20;0.00;;;26.40;99.90;;;;;;26013560;22;20255;-69
2022/09/20 11:23:03;;;;;;;0.20;0.00;;;27.00;99.90;;;;;;26010578;22;20180;-69
2022/09/20 11:33:17;;;;;;;0.20;0.00;;;27.00;99.90;;;;;;26011464;22;20199;-71
2022/09/20 11:43:30;;;;;;;0.20;0.00;;;27.70;99.90;;;;;;26037057;22;20190;-68
2022/09/20 11:54:13;;;;;;;0.20;0.10;;;28.10;99.90;;;;;;26007525;22;20211;-68
2022/09/20 12:04:23;;;;;;;0.20;0.00;;;28.80;99.90;;;;;;26022085;22;20183;-69
2022/09/20 12:14:36;;;;;;;0.20;0.00;;;28.30;99.90;;;;;;26037504;22;20183;-67
2022/09/20 12:24:41;;;;;;;0.20;0.00;;;28.40;99.90;;;;;;26035850;22;20227;-67
2022/09/20 12:34:48;;;;;;;0.20;0.00;;;28.80;99.90;;;;;;26008958;22;20180;-68
2022/09/20 12:45:00;;;;;;;0.20;0.00;;;29.30;99.90;;;;;;26027905;22;20286;-69
2022/09/20 12:55:05;;;;;;;0.20;0.00;;;29.20;99.90;;;;;;25985555;22;20259;-68
2022/09/20 13:05:35;;;;;;;0.20;0.00;;;28.50;99.90;;;;;;26036197;22;20184;-68
2022/09/20 13:15:39;;;;;;;0.20;0.00;;;29.60;99.90;;;;;;26005958;22;20191;-70
2022/09/20 13:25:45;;;;;;;0.20;0.00;;;29.30;99.90;;;;;;26013341;22;20203;-69
2022/09/20 13:35:51;;;;;;;0.20;0.00;;;29.70;99.90;;;;;;26041545;22;20180;-69
2022/09/20 13:45:58;;;;;;;0.20;0.00;;;29.20;99.90;;;;;;26045750;22;20235;-68
2022/09/20 13:56:11;;;;;;;0.20;0.00;;;29.20;99.90;;;;;;26014485;22;20192;-67
2022/09/20 14:06:17;;;;;;;0.20;0.00;;;29.30;99.90;;;;;;26013540;22;20235;-68
2022/09/20 14:16:22;;;;;;;0.20;0.00;;;28.90;99.90;;;;;;26018041;22;20223;-68
2022/09/20 14:26:32;;;;;;;0.20;0.00;;;29.90;99.90;;;;;;26040705;22;20235;-69
2022/09/20 14:36:36;;;;;;;0.20;0.08;;;28.10;99.90;;;;;;26039336;22;20235;-68
2022/09/20 14:46:41;;;;;;;0.20;0.00;;;29.10;99.90;;;;;;26014144;22;20219;-68
2022/09/20 14:56:49;;;;;;;0.20;0.00;;;29.90;99.90;;;;;;26037881;22;20204;-69
2022/09/20 15:06:55;;;;;;;0.20;0.00;;;29.80;99.90;;;;;;26012793;22;20196;-68
2022/09/20 15:17:00;;;;;;;0.20;0.00;;;28.90;99.90;;;;;;26009635;22;20167;-67
2022/09/20 15:27:05;;;;;;;0.20;0.00;;;27.90;99.90;;;;;;26036757;22;20191;-68
2022/09/20 15:37:09;;;;;;;0.20;0.00;;;27.80;99.90;;;;;;26010710;22;20171;-69
2022/09/20 15:47:14;;;;;;;0.20;0.00;;;27.90;99.90;;;;;;26038513;22;20259;-69
2022/09/20 15:57:19;;;;;;;0.20;0.00;;;26.70;99.90;;;;;;26008477;22;20263;-68
2022/09/20 16:07:25;;;;;;;0.20;0.00;;;26.00;99.90;;;;;;26035728;22;20294;-67
2022/09/20 16:27:51;;;;;;;0.20;0.00;;;25.20;99.90;;;;;;26033622;22;20207;-68
2022/09/20 16:37:56;;;;;;;0.20;0.00;;;25.00;99.90;;;;;;26031032;22;20238;-68
2022/09/20 16:48:02;;;;;;;0.20;0.00;;;25.10;99.90;;;;;;26033673;22;20246;-67
2022/09/20 16:58:10;;;;;;;0.20;0.00;;;24.80;99.90;;;;;;26032139;22;20194;-68
2022/09/20 17:08:15;;;;;;;0.20;0.00;;;24.60;99.90;;;;;;26040315;22;20243;-68
2022/09/20 17:18:19;;;;;;;0.20;0.08;;;24.40;99.90;;;;;;26043029;22;20184;-69
2022/09/20 17:28:24;;;;;;;0.20;0.00;;;24.30;99.90;;;;;;26040996;22;20230;-68
2022/09/20 17:38:29;;;;;;;0.20;0.00;;;24.30;99.90;;;;;;26041228;22;20176;-68
2022/09/20 17:48:35;;;;;;;0.20;0.00;;;24.20;99.90;;;;;;26015919;22;20204;-69
2022/09/20 17:58:40;;;;;;;0.20;0.00;;;23.90;99.90;;;;;;25916615;23;20286;-69
2022/09/20 18:08:48;;;;;;;0.20;0.00;;;23.80;99.90;;;;;;25914335;22;20245;-69
2022/09/20 18:18:52;;;;;;;0.20;0.10;;;23.50;99.90;;;;;;25915826;22;20205;-69
2022/09/20 18:28:59;;;;;;;0.20;0.00;;;23.40;99.90;;;;;;25913281;23;20255;-69
2022/09/20 18:39:02;;;;;;;0.20;0.00;;;23.20;99.90;;;;;;25915030;23;20205;-69
2022/09/20 18:49:11;;;;;;;0.20;0.00;;;23.20;99.90;;;;;;25915170;22;20240;-69
2022/09/20 18:59:17;;;;;;;0.20;0.00;;;23.20;99.90;;;;;;26038302;22;20247;-70
2022/09/20 19:09:29;;;;;;;0.20;0.10;;;22.80;99.90;;;;;;26042378;22;20199;-70
2022/09/20 19:19:46;;;;;;;0.20;0.00;;;22.70;99.90;;;;;;26038075;22;20164;-70
2022/09/20 19:29:52;;;;;;;0.20;0.00;;;22.30;99.90;;;;;;26037491;22;20230;-68
2022/09/20 19:40:14;;;;;;;0.20;0.00;;;21.80;99.90;;;;;;26039698;22;20148;-68
2022/09/20 19:50:31;;;;;;;0.20;0.00;;;21.60;99.90;;;;;;26041139;22;20255;-70
2022/09/20 20:00:35;;;;;;;0.20;0.00;;;21.40;99.90;;;;;;26013209;22;20160;-70
2022/09/20 20:10:50;;;;;;;0.20;0.00;;;21.20;99.90;;;;;;26010350;22;20288;-70
2022/09/20 20:20:56;;;;;;;0.20;0.00;;;21.10;99.90;;;;;;26009589;22;20367;-70
2022/09/20 20:31:02;;;;;;;0.20;0.00;;;21.00;99.90;;;;;;26009838;22;20194;-70
2022/09/20 20:41:08;;;;;;;0.20;0.00;;;20.90;99.90;;;;;;26012084;22;20160;-70
2022/09/20 20:51:14;;;;;;;0.20;0.00;;;20.80;99.90;;;;;;26007783;22;20204;-70
2022/09/20 21:01:20;;;;;;;0.20;0.00;;;20.80;99.90;;;;;;26039920;22;20164;-70
2022/09/20 21:11:27;;;;;;;0.20;0.00;;;20.70;99.90;;;;;;26037178;22;20180;-70
2022/09/20 21:21:32;;;;;;;0.20;0.00;;;20.60;99.90;;;;;;26039143;22;20232;-70
2022/09/20 21:31:39;;;;;;;0.20;0.10;;;20.50;99.90;;;;;;26038501;22;20192;-70
2022/09/20 21:41:42;;;;;;;0.20;0.00;;;20.40;99.90;;;;;;26012867;22;20160;-70
2022/09/20 21:51:50;;;;;;;0.20;0.10;;;20.60;99.90;;;;;;26019908;22;20259;-68
2022/09/20 22:01:55;;;;;;;0.20;0.10;;;20.50;99.90;;;;;;26044685;22;20180;-70
2022/09/20 22:12:00;;;;;;;0.20;0.00;;;20.60;99.90;;;;;;26047932;22;20248;-69
2022/09/20 22:22:04;;;;;;;0.20;0.00;;;20.70;99.90;;;;;;26018023;22;20172;-71
2022/09/20 22:32:09;;;;;;;0.20;0.10;;;20.50;99.90;;;;;;26021172;22;20468;-69
2022/09/20 22:42:13;;;;;;;0.20;0.10;;;20.60;99.90;;;;;;26018201;22;20164;-70
2022/09/20 22:52:18;;;;;;;0.20;0.10;;;20.50;99.90;;;;;;26022125;22;20291;-70
2022/09/20 23:02:21;;;;;;;0.20;0.00;;;20.70;99.90;;;;;;26043761;22;20224;-71
2022/09/20 23:12:27;;;;;;;0.20;0.00;;;20.80;99.90;;;;;;26018170;22;20188;-69
2022/09/20 23:22:30;;;;;;;0.20;0.00;;;20.80;99.90;;;;;;26043658;22;20145;-70
2022/09/20 23:32:36;;;;;;;0.20;0.00;;;20.80;99.90;;;;;;26043566;22;20230;-70
2022/09/20 23:42:39;;;;;;;0.20;0.00;;;20.80;99.90;;;;;;26016653;22;20228;-70
2022/09/20 23:52:44;;;;;;;0.20;0.00;;;20.70;99.90;;;;;;26015702;22;20228;-69
